메인 페이지
METAR-TAF:

METAR-TAF

공항 :

쿠웨이트, 쿠웨이트

쿠웨이트 국제공항

위도: 29-13N, 경도: 047-59E, 고도: 55m

현재 날씨관측

예보는 57분 전, 05:00시(UTC)에 발표되었습니다.
서남서4kt
온도 13°C
습도 54%
기압 1018 hPa
시정: 8000m

METAR: OKBK 200500Z 24004KT 8000 NSC 13/04 Q1018 NOSIG

시각: 08:57 (05:57 UTC)

예보

예보는 7 시간 12분 전, 22:45시(UTC)에 발표되었습니다.
예보 대상 시간: 20일 00시부터 21일 06시까지 (UTC)
8kt
시정: 7000m
일시적
20일 00시부터 20일 07시까지 (UTC)
여러 방향의 바람 3kt
시정: 4000m
연무

TAF: OKBK 192245Z 2000/2106 35008KT 7000 NSC TEMPO 2000/2007 VRB03KT 4000 HZ

4,000개 이상의 공항 관측 자료 및 예보 (METAR 및 TAF 보고).

지도상에서 검색 가능한 기상관측소가 노란 점과 빨간 점으로 표시되어 있습니다.

기상관측소 명을 보려면 표시 위로 마우스를 이동하세요.

날씨 관측과 예보를 보려면 클릭하세요.

지도 변경 : 확대하려면 엑스 표시가 있는 녹색 버튼, 축소하려면 빼기 표시가 있는 녹색 버튼, 다음 페이지의 지도를 보려면 녹색 화살표를 클릭하세요.


METAR-TAF: